Time;durP1;ratioP1;P1;durP2;ratioP2;P2;SDS_P1;SDS_P2;PMS_P1;PMS_P2;Temp;Humidity;BMP_temperature;BMP_pressure;BME280_temperature;BME280_humidity;BME280_pressure;Samples;Min_cycle;Max_cycle;Signal;HPM_P1;HPM_P2
2023/05/31 00:01:26;;;;;;;7.60;4.80;;;;;;;;;;5017418;28;20224;-79
2023/05/31 00:03:52;;;;;;;8.47;4.90;;;;;;;;;;5050122;28;20189;-79
2023/05/31 00:06:18;;;;;;;8.30;5.60;;;;;;;;;;5033086;28;20180;-79
2023/05/31 00:08:44;;;;;;;5.30;4.80;;;;;;;;;;5031407;28;20194;-79
2023/05/31 00:11:10;;;;;;;6.33;5.47;;;;;;;;;;5051288;28;20207;-79
2023/05/31 00:13:38;;;;;;;5.47;4.90;;;;;;;;;;5033670;28;20211;-79
2023/05/31 00:16:04;;;;;;;6.33;5.17;;;;;;;;;;5032996;28;20188;-83
2023/05/31 00:18:30;;;;;;;6.40;4.97;;;;;;;;;;5017056;28;20181;-83
2023/05/31 00:20:56;;;;;;;8.57;5.50;;;;;;;;;;5016678;28;20188;-83
2023/05/31 00:23:22;;;;;;;5.87;4.90;;;;;;;;;;5033235;28;20187;-83
2023/05/31 00:25:49;;;;;;;6.10;5.17;;;;;;;;;;5032863;28;20187;-83
2023/05/31 00:28:15;;;;;;;6.03;5.30;;;;;;;;;;5016636;28;20185;-83
2023/05/31 00:30:41;;;;;;;7.83;5.57;;;;;;;;;;5032840;28;20315;-83
2023/05/31 00:33:07;;;;;;;8.77;5.37;;;;;;;;;;5033090;28;20216;-82
2023/05/31 00:35:33;;;;;;;7.93;5.77;;;;;;;;;;5017343;28;20189;-83
2023/05/31 00:38:01;;;;;;;8.47;5.73;;;;;;;;;;5033656;28;20184;-83
2023/05/31 00:40:27;;;;;;;9.00;5.83;;;;;;;;;;5032977;28;20173;-83
2023/05/31 00:42:53;;;;;;;5.73;5.03;;;;;;;;;;5020730;28;20250;-83
2023/05/31 00:45:19;;;;;;;8.27;5.90;;;;;;;;;;5021052;28;20185;-83
2023/05/31 00:47:48;;;;;;;6.23;5.30;;;;;;;;;;5021005;28;20181;-83
2023/05/31 00:50:17;;;;;;;6.80;6.10;;;;;;;;;;5020853;28;20275;-85
2023/05/31 00:52:46;;;;;;;7.33;5.70;;;;;;;;;;5020759;28;20259;-85
2023/05/31 00:55:12;;;;;;;7.03;5.87;;;;;;;;;;5037265;28;20187;-84
2023/05/31 00:57:38;;;;;;;7.00;6.20;;;;;;;;;;5036895;28;20188;-85
2023/05/31 01:00:05;;;;;;;9.73;5.90;;;;;;;;;;5036687;28;20191;-85
2023/05/31 01:02:34;;;;;;;7.63;6.17;;;;;;;;;;5048235;28;20188;-85
2023/05/31 01:05:01;;;;;;;6.93;6.33;;;;;;;;;;5035842;28;20181;-82
2023/05/31 01:07:27;;;;;;;7.93;6.30;;;;;;;;;;5036618;28;20199;-82
2023/05/31 01:09:54;;;;;;;6.87;6.10;;;;;;;;;;5026550;28;20188;-82
2023/05/31 01:12:28;;;;;;;9.40;6.80;;;;;;;;;;5055332;28;20223;-82
2023/05/31 01:15:01;;;;;;;9.87;6.13;;;;;;;;;;5040984;28;20234;-82
2023/05/31 01:17:34;;;;;;;9.90;6.67;;;;;;;;;;5036624;28;20189;-83
2023/05/31 01:20:11;;;;;;;8.40;6.30;;;;;;;;;;5036330;28;20188;-83
2023/05/31 01:22:58;;;;;;;8.07;7.23;;;;;;;;;;5052575;28;20215;-83
2023/05/31 01:25:32;;;;;;;8.97;6.97;;;;;;;;;;5062580;28;20190;-83
2023/05/31 01:27:59;;;;;;;9.37;7.50;;;;;;;;;;5037051;28;20191;-83
2023/05/31 01:30:28;;;;;;;10.07;8.10;;;;;;;;;;5036567;28;20232;-83
2023/05/31 01:32:56;;;;;;;9.67;7.17;;;;;;;;;;5037140;28;20176;-83
2023/05/31 01:35:22;;;;;;;9.90;7.97;;;;;;;;;;5044262;28;20188;-83
2023/05/31 01:37:48;;;;;;;9.57;7.90;;;;;;;;;;5039767;28;20242;-83
2023/05/31 01:40:15;;;;;;;9.67;7.57;;;;;;;;;;5032058;28;20188;-83
2023/05/31 01:42:42;;;;;;;9.40;7.60;;;;;;;;;;5020093;28;20214;-82
2023/05/31 01:45:09;;;;;;;10.83;8.00;;;;;;;;;;5055020;28;20195;-83
2023/05/31 01:47:35;;;;;;;10.13;8.07;;;;;;;;;;5041762;28;20189;-83
2023/05/31 01:50:02;;;;;;;10.37;7.87;;;;;;;;;;5035198;28;20192;-83
2023/05/31 01:52:28;;;;;;;10.93;8.27;;;;;;;;;;5018263;28;20272;-83
2023/05/31 01:54:54;;;;;;;9.17;8.20;;;;;;;;;;5026738;28;20238;-83
2023/05/31 01:57:20;;;;;;;9.53;8.10;;;;;;;;;;5036737;28;20187;-83
2023/05/31 01:59:46;;;;;;;9.83;8.03;;;;;;;;;;5021801;28;20277;-83
2023/05/31 02:02:12;;;;;;;11.40;8.00;;;;;;;;;;5035202;28;20212;-83
2023/05/31 02:04:38;;;;;;;10.13;7.87;;;;;;;;;;5035090;28;20181;-83
2023/05/31 02:07:04;;;;;;;13.23;9.03;;;;;;;;;;5035517;28;20208;-83
2023/05/31 02:09:30;;;;;;;9.47;8.37;;;;;;;;;;5035747;28;20249;-83
2023/05/31 02:11:56;;;;;;;12.00;9.17;;;;;;;;;;5035356;28;20216;-80
2023/05/31 02:14:22;;;;;;;11.03;8.43;;;;;;;;;;5035207;28;20177;-80
2023/05/31 02:16:48;;;;;;;11.43;9.30;;;;;;;;;;5035172;28;20203;-80
2023/05/31 02:19:15;;;;;;;10.93;8.87;;;;;;;;;;5035015;28;20185;-80
2023/05/31 02:21:41;;;;;;;11.27;9.07;;;;;;;;;;5035420;28;20260;-79
2023/05/31 02:24:07;;;;;;;10.97;8.50;;;;;;;;;;5034862;28;20177;-79
2023/05/31 02:26:33;;;;;;;12.10;9.07;;;;;;;;;;5038044;28;20188;-79
2023/05/31 02:28:59;;;;;;;12.83;9.30;;;;;;;;;;5054525;28;20254;-82
2023/05/31 02:31:25;;;;;;;12.07;9.43;;;;;;;;;;5054772;28;20314;-82
2023/05/31 02:33:51;;;;;;;13.73;9.33;;;;;;;;;;5054822;28;20207;-82
2023/05/31 02:36:18;;;;;;;14.90;9.43;;;;;;;;;;5054612;28;20275;-83
2023/05/31 02:38:44;;;;;;;11.33;9.13;;;;;;;;;;5054846;28;20176;-82
2023/05/31 02:41:10;;;;;;;12.33;9.40;;;;;;;;;;5054309;28;20187;-82
2023/05/31 02:43:36;;;;;;;12.07;9.20;;;;;;;;;;5053689;28;20192;-83
2023/05/31 02:46:02;;;;;;;10.43;9.30;;;;;;;;;;5054516;28;20531;-82
2023/05/31 02:48:29;;;;;;;13.57;9.90;;;;;;;;;;5054599;28;20250;-82
2023/05/31 02:50:55;;;;;;;13.07;9.80;;;;;;;;;;5054476;28;20207;-82
2023/05/31 02:53:21;;;;;;;15.10;9.90;;;;;;;;;;5054483;28;20176;-82
2023/05/31 02:55:47;;;;;;;11.20;9.70;;;;;;;;;;5036475;28;20203;-83
2023/05/31 02:58:14;;;;;;;15.10;10.07;;;;;;;;;;5034197;28;20180;-83
2023/05/31 03:00:40;;;;;;;12.90;10.17;;;;;;;;;;5034622;28;20227;-83
2023/05/31 03:03:06;;;;;;;11.83;10.33;;;;;;;;;;5047871;28;20177;-83
2023/05/31 03:05:33;;;;;;;12.57;10.70;;;;;;;;;;5050315;28;20185;-82
2023/05/31 03:07:59;;;;;;;14.13;10.57;;;;;;;;;;5051673;28;20185;-83
2023/05/31 03:10:25;;;;;;;15.87;10.97;;;;;;;;;;5031449;28;20173;-83
2023/05/31 03:12:51;;;;;;;12.80;10.33;;;;;;;;;;5020773;28;20227;-83
2023/05/31 03:15:18;;;;;;;16.50;11.60;;;;;;;;;;5033459;28;20172;-83
2023/05/31 03:17:44;;;;;;;16.10;11.03;;;;;;;;;;5033758;28;20234;-83
2023/05/31 03:20:10;;;;;;;16.33;11.50;;;;;;;;;;5035206;28;20181;-79
2023/05/31 03:22:37;;;;;;;15.17;10.97;;;;;;;;;;5034020;28;20207;-79
2023/05/31 03:25:04;;;;;;;14.80;10.30;;;;;;;;;;5051008;28;20176;-79
2023/05/31 03:27:30;;;;;;;15.97;12.03;;;;;;;;;;5034092;28;20208;-79
2023/05/31 03:29:56;;;;;;;15.27;11.53;;;;;;;;;;5033890;28;20232;-80
2023/05/31 03:32:22;;;;;;;15.37;10.93;;;;;;;;;;5017872;28;20208;-80
2023/05/31 03:34:51;;;;;;;14.77;11.67;;;;;;;;;;5034156;28;20187;-80
2023/05/31 03:37:17;;;;;;;15.10;12.23;;;;;;;;;;5050609;28;20176;-80
2023/05/31 03:39:43;;;;;;;15.63;12.20;;;;;;;;;;5017657;28;20264;-80
2023/05/31 03:42:12;;;;;;;15.73;12.17;;;;;;;;;;5017126;28;20181;-79
2023/05/31 03:44:39;;;;;;;15.63;11.87;;;;;;;;;;5033842;28;20180;-80
2023/05/31 03:47:05;;;;;;;14.77;12.03;;;;;;;;;;5050470;28;20192;-79
2023/05/31 03:49:31;;;;;;;17.70;12.83;;;;;;;;;;5034472;28;20181;-79
2023/05/31 03:51:57;;;;;;;17.83;12.67;;;;;;;;;;5017908;28;20220;-85
2023/05/31 03:54:23;;;;;;;18.83;13.83;;;;;;;;;;5050177;28;20185;-85
2023/05/31 03:56:49;;;;;;;16.00;12.47;;;;;;;;;;5050232;28;20187;-86
2023/05/31 03:59:15;;;;;;;15.53;12.70;;;;;;;;;;5050196;28;20184;-85
2023/05/31 04:01:41;;;;;;;17.03;12.43;;;;;;;;;;5050195;28;20239;-86
2023/05/31 04:04:07;;;;;;;15.90;13.33;;;;;;;;;;5050298;28;20185;-86
2023/05/31 04:06:36;;;;;;;17.30;12.80;;;;;;;;;;5050005;28;20185;-85
2023/05/31 04:09:04;;;;;;;18.50;12.67;;;;;;;;;;5040603;28;20199;-83
2023/05/31 04:11:30;;;;;;;18.73;12.77;;;;;;;;;;5069485;28;20218;-83
2023/05/31 04:13:57;;;;;;;17.50;12.70;;;;;;;;;;5053262;28;20265;-83
2023/05/31 04:16:23;;;;;;;20.67;12.60;;;;;;;;;;5053496;28;20164;-83
2023/05/31 04:18:49;;;;;;;17.07;13.73;;;;;;;;;;5054900;28;20190;-83
2023/05/31 04:21:15;;;;;;;20.13;13.90;;;;;;;;;;5044069;28;20192;-83
2023/05/31 04:23:41;;;;;;;17.53;13.90;;;;;;;;;;5017876;28;20207;-83
2023/05/31 04:26:07;;;;;;;17.07;13.33;;;;;;;;;;5044757;28;20192;-85
2023/05/31 04:28:34;;;;;;;19.50;14.20;;;;;;;;;;5050978;28;20192;-87
2023/05/31 04:31:00;;;;;;;18.67;13.60;;;;;;;;;;5069524;28;20235;-86
2023/05/31 04:33:29;;;;;;;19.27;14.17;;;;;;;;;;5069930;28;20192;-86
2023/05/31 04:35:56;;;;;;;18.43;14.13;;;;;;;;;;5069777;28;20180;-87
2023/05/31 04:38:27;;;;;;;18.70;13.47;;;;;;;;;;5047155;28;20242;-86
2023/05/31 04:40:54;;;;;;;18.23;13.93;;;;;;;;;;5017106;28;20222;-86
2023/05/31 04:43:20;;;;;;;20.23;14.63;;;;;;;;;;5026951;22;20188;-83
2023/05/31 04:45:47;;;;;;;21.90;15.87;;;;;;;;;;5071579;28;20238;-83
2023/05/31 04:48:15;;;;;;;18.03;14.80;;;;;;;;;;5071883;28;20171;-83
2023/05/31 04:50:41;;;;;;;18.60;15.00;;;;;;;;;;5072313;28;20171;-83
2023/05/31 04:53:07;;;;;;;23.50;16.10;;;;;;;;;;5072644;28;20260;-83
2023/05/31 04:55:33;;;;;;;20.87;16.23;;;;;;;;;;5072203;28;20210;-83
2023/05/31 04:57:59;;;;;;;18.00;15.63;;;;;;;;;;5056002;28;20201;-83
2023/05/31 05:00:25;;;;;;;20.83;15.57;;;;;;;;;;5056443;28;20183;-80
2023/05/31 05:02:51;;;;;;;20.93;16.73;;;;;;;;;;5072602;28;20186;-80
2023/05/31 05:05:18;;;;;;;21.87;16.33;;;;;;;;;;5072758;28;20190;-80
2023/05/31 05:07:44;;;;;;;19.73;15.17;;;;;;;;;;5084746;28;20225;-80
2023/05/31 05:10:10;;;;;;;20.83;16.13;;;;;;;;;;5072625;28;20184;-80
2023/05/31 05:12:36;;;;;;;20.77;15.70;;;;;;;;;;5072395;28;20237;-80
2023/05/31 05:15:02;;;;;;;20.17;15.73;;;;;;;;;;5089502;28;20218;-82
2023/05/31 05:17:28;;;;;;;19.50;15.60;;;;;;;;;;5076078;28;20175;-82
2023/05/31 05:19:54;;;;;;;22.90;15.80;;;;;;;;;;5074302;28;20240;-82
2023/05/31 05:22:20;;;;;;;20.13;16.60;;;;;;;;;;5075634;28;20227;-82
2023/05/31 05:24:46;;;;;;;23.13;16.10;;;;;;;;;;5090220;28;20183;-82
2023/05/31 05:27:12;;;;;;;21.00;15.93;;;;;;;;;;5075291;28;20239;-82
2023/05/31 05:29:38;;;;;;;19.20;15.70;;;;;;;;;;5079015;28;20217;-82
2023/05/31 05:32:05;;;;;;;22.87;16.27;;;;;;;;;;5085622;28;20206;-80
2023/05/31 05:34:31;;;;;;;22.07;16.37;;;;;;;;;;5079197;28;20186;-80
2023/05/31 05:36:57;;;;;;;24.53;15.80;;;;;;;;;;5079187;28;20216;-80
2023/05/31 05:39:23;;;;;;;18.20;15.87;;;;;;;;;;5074714;28;20271;-80
2023/05/31 05:41:50;;;;;;;21.13;15.90;;;;;;;;;;5075772;28;20175;-80
2023/05/31 05:44:16;;;;;;;19.70;15.40;;;;;;;;;;5075322;28;20223;-80
2023/05/31 05:46:42;;;;;;;18.83;15.37;;;;;;;;;;5092388;28;20179;-80
2023/05/31 05:49:08;;;;;;;22.17;15.90;;;;;;;;;;5077668;28;20297;-87
2023/05/31 05:51:35;;;;;;;19.60;14.93;;;;;;;;;;5096166;28;20316;-87
2023/05/31 05:54:01;;;;;;;20.87;14.17;;;;;;;;;;5096050;28;20201;-87
2023/05/31 05:56:27;;;;;;;21.40;14.30;;;;;;;;;;5079285;28;20181;-87
2023/05/31 05:58:53;;;;;;;18.50;13.80;;;;;;;;;;5095917;28;20167;-87
2023/05/31 06:01:20;;;;;;;20.83;13.90;;;;;;;;;;5095989;28;20182;-88
2023/05/31 06:03:49;;;;;;;20.90;13.73;;;;;;;;;;5079099;28;20197;-88
2023/05/31 06:06:18;;;;;;;17.10;12.17;;;;;;;;;;5095759;28;20250;-83
2023/05/31 06:08:44;;;;;;;15.50;11.83;;;;;;;;;;5095483;28;20206;-83
2023/05/31 06:11:10;;;;;;;19.67;12.50;;;;;;;;;;5095325;28;20206;-83
2023/05/31 06:13:37;;;;;;;16.60;11.67;;;;;;;;;;5078655;28;20178;-83
2023/05/31 06:16:06;;;;;;;15.33;11.47;;;;;;;;;;5096544;28;20270;-83
2023/05/31 06:18:32;;;;;;;17.47;11.33;;;;;;;;;;5095074;28;20182;-84
2023/05/31 06:20:58;;;;;;;16.13;11.77;;;;;;;;;;5095178;28;20191;-84
2023/05/31 06:23:25;;;;;;;14.50;10.80;;;;;;;;;;5095337;28;20183;-87
2023/05/31 06:25:51;;;;;;;14.87;10.83;;;;;;;;;;5078726;28;20213;-88
2023/05/31 06:28:17;;;;;;;16.47;11.40;;;;;;;;;;5095935;28;20182;-88
2023/05/31 06:30:43;;;;;;;16.93;10.47;;;;;;;;;;5078664;28;20268;-88
2023/05/31 06:33:09;;;;;;;13.87;10.73;;;;;;;;;;5095249;28;20190;-87
2023/05/31 06:35:35;;;;;;;13.73;9.93;;;;;;;;;;5078037;28;20549;-87
2023/05/31 06:38:03;;;;;;;15.93;10.20;;;;;;;;;;5094822;28;20212;-87
2023/05/31 06:40:29;;;;;;;15.30;10.80;;;;;;;;;;5077950;28;20175;-83
2023/05/31 06:42:55;;;;;;;16.03;10.00;;;;;;;;;;5078194;28;20178;-83
2023/05/31 06:45:21;;;;;;;15.47;10.83;;;;;;;;;;5077248;28;20321;-83
2023/05/31 06:47:47;;;;;;;12.77;9.97;;;;;;;;;;5094560;28;20235;-83
2023/05/31 06:50:14;;;;;;;15.07;9.93;;;;;;;;;;5093684;28;20182;-83
2023/05/31 06:52:40;;;;;;;13.93;9.80;;;;;;;;;;5074741;28;20207;-83
2023/05/31 06:55:09;;;;;;;16.83;9.50;;;;;;;;;;5068831;28;20180;-83
2023/05/31 06:57:35;;;;;;;14.40;9.43;;;;;;;;;;5073045;28;20246;-83
2023/05/31 07:00:01;;;;;;;13.80;9.67;;;;;;;;;;5060231;28;20215;-82
2023/05/31 07:02:28;;;;;;;18.87;10.10;;;;;;;;;;5091500;28;20178;-83
2023/05/31 07:04:54;;;;;;;13.43;9.53;;;;;;;;;;5077968;28;20179;-82
2023/05/31 07:07:20;;;;;;;14.47;9.77;;;;;;;;;;5094278;28;20174;-82
2023/05/31 07:09:46;;;;;;;14.10;9.83;;;;;;;;;;5093075;28;20273;-82
2023/05/31 07:12:12;;;;;;;15.03;10.40;;;;;;;;;;5090362;28;20259;-83
2023/05/31 07:14:39;;;;;;;14.90;9.17;;;;;;;;;;5094270;28;20194;-83
2023/05/31 07:17:05;;;;;;;15.53;10.17;;;;;;;;;;5066588;28;20261;-84
2023/05/31 07:19:31;;;;;;;15.93;10.10;;;;;;;;;;5071821;28;20186;-83
2023/05/31 07:21:57;;;;;;;15.20;10.33;;;;;;;;;;5073180;28;20200;-83
2023/05/31 07:24:24;;;;;;;14.23;10.23;;;;;;;;;;5074025;28;20178;-83
2023/05/31 07:26:50;;;;;;;14.73;9.67;;;;;;;;;;5075460;28;20210;-84
2023/05/31 07:29:16;;;;;;;14.10;9.37;;;;;;;;;;5073654;28;20187;-84
2023/05/31 07:31:42;;;;;;;16.73;9.50;;;;;;;;;;5093182;28;20207;-83
2023/05/31 07:34:09;;;;;;;15.17;9.57;;;;;;;;;;5075479;28;20183;-83
2023/05/31 07:36:35;;;;;;;13.30;9.20;;;;;;;;;;5091005;28;20182;-83
2023/05/31 07:39:01;;;;;;;16.53;9.90;;;;;;;;;;5057921;28;20186;-83
2023/05/31 07:41:27;;;;;;;13.17;9.20;;;;;;;;;;5088875;28;20172;-83
2023/05/31 07:43:54;;;;;;;14.00;8.83;;;;;;;;;;5073223;28;20222;-83
2023/05/31 07:46:20;;;;;;;12.00;9.00;;;;;;;;;;5087941;28;20183;-85
2023/05/31 07:48:46;;;;;;;15.57;9.20;;;;;;;;;;5060945;28;20191;-83
2023/05/31 07:51:12;;;;;;;15.87;9.40;;;;;;;;;;5076085;28;20228;-84
2023/05/31 07:53:39;;;;;;;12.83;9.13;;;;;;;;;;5087604;28;20168;-84
2023/05/31 07:56:06;;;;;;;14.63;8.50;;;;;;;;;;5071000;28;20191;-84
2023/05/31 07:58:32;;;;;;;12.70;8.70;;;;;;;;;;5064360;28;20182;-85
2023/05/31 08:00:58;;;;;;;13.33;8.27;;;;;;;;;;5065086;28;20178;-85
2023/05/31 08:03:24;;;;;;;17.03;9.07;;;;;;;;;;5090375;28;20182;-84
2023/05/31 08:05:50;;;;;;;14.27;8.67;;;;;;;;;;5088451;28;20182;-83
2023/05/31 08:08:16;;;;;;;14.77;8.40;;;;;;;;;;5092750;28;20179;-82
2023/05/31 08:10:43;;;;;;;12.90;8.65;;;;;;;;;;5083754;28;20488;-83
2023/05/31 08:13:09;;;;;;;12.93;8.57;;;;;;;;;;5072872;28;20190;-84
2023/05/31 08:15:35;;;;;;;12.03;8.07;;;;;;;;;;5064770;28;20178;-83
2023/05/31 08:18:01;;;;;;;13.27;7.90;;;;;;;;;;5068528;28;20184;-83
2023/05/31 08:20:27;;;;;;;11.67;7.60;;;;;;;;;;5056398;28;20210;-82
2023/05/31 08:22:53;;;;;;;13.70;7.33;;;;;;;;;;5056267;28;20242;-81
2023/05/31 08:25:19;;;;;;;12.43;7.17;;;;;;;;;;5056163;28;20183;-81
2023/05/31 08:27:45;;;;;;;13.20;7.13;;;;;;;;;;5072459;28;20243;-80
2023/05/31 08:30:12;;;;;;;10.63;7.07;;;;;;;;;;5076332;28;20179;-81
2023/05/31 08:32:38;;;;;;;11.43;6.60;;;;;;;;;;5071920;28;20218;-81
2023/05/31 08:35:08;;;;;;;12.47;6.97;;;;;;;;;;5080093;28;20225;-89
2023/05/31 08:37:36;;;;;;;11.57;7.00;;;;;;;;;;5083611;28;20205;-92
2023/05/31 08:40:05;;;;;;;11.82;6.72;;;;;;;;;;5073168;28;20569;-86
2023/05/31 08:42:40;;;;;;;10.73;5.80;;;;;;;;;;5075696;28;20182;-92
2023/05/31 08:45:12;;;;;;;9.23;5.67;;;;;;;;;;5077221;28;20223;-92
2023/05/31 08:47:45;;;;;;;11.77;6.17;;;;;;;;;;5068397;28;20191;-91
2023/05/31 08:50:12;;;;;;;8.30;6.00;;;;;;;;;;5077000;28;20249;-92
2023/05/31 08:52:39;;;;;;;12.47;5.43;;;;;;;;;;5093327;28;20262;-87
2023/05/31 08:55:06;;;;;;;9.63;5.33;;;;;;;;;;5093472;28;20167;-86
2023/05/31 08:57:33;;;;;;;9.00;5.97;;;;;;;;;;5075038;28;20181;-85
2023/05/31 09:00:03;;;;;;;9.73;5.63;;;;;;;;;;5084638;28;20261;-85
2023/05/31 09:02:30;;;;;;;11.33;5.60;;;;;;;;;;5094794;28;20186;-85
2023/05/31 09:04:56;;;;;;;7.97;5.33;;;;;;;;;;5080310;28;20237;-86
2023/05/31 09:07:22;;;;;;;13.35;6.13;;;;;;;;;;5081504;28;20179;-85
2023/05/31 09:09:49;;;;;;;9.68;5.47;;;;;;;;;;5077329;28;20332;-86
2023/05/31 09:12:15;;;;;;;11.10;4.85;;;;;;;;;;5082064;28;20199;-86
2023/05/31 09:14:42;;;;;;;9.05;5.30;;;;;;;;;;5095962;28;20189;-86
2023/05/31 09:17:08;;;;;;;8.90;4.82;;;;;;;;;;5093565;28;20181;-86
2023/05/31 09:19:34;;;;;;;9.95;5.28;;;;;;;;;;5093107;28;20175;-86
2023/05/31 09:22:00;;;;;;;9.38;4.70;;;;;;;;;;5063609;28;20179;-86
2023/05/31 09:24:26;;;;;;;7.97;4.88;;;;;;;;;;5097485;28;20178;-86
2023/05/31 09:26:55;;;;;;;7.35;4.43;;;;;;;;;;5072082;28;20186;-84
2023/05/31 09:29:22;;;;;;;8.20;4.90;;;;;;;;;;5090926;28;20240;-85
2023/05/31 09:31:48;;;;;;;8.85;4.50;;;;;;;;;;5079235;28;20213;-84
2023/05/31 09:34:29;;;;;;;8.13;4.65;;;;;;;;;;5094772;28;20187;-83
2023/05/31 09:36:58;;;;;;;14.85;4.88;;;;;;;;;;5079959;28;20190;-84
2023/05/31 09:39:25;;;;;;;8.45;4.18;;;;;;;;;;5097330;28;20171;-84
2023/05/31 09:41:51;;;;;;;9.90;4.25;;;;;;;;;;5079155;28;20186;-82
2023/05/31 09:44:18;;;;;;;7.47;4.00;;;;;;;;;;5096585;28;20222;-82
2023/05/31 09:46:47;;;;;;;10.65;4.70;;;;;;;;;;5079960;28;20179;-81
2023/05/31 09:49:13;;;;;;;8.23;4.18;;;;;;;;;;5096240;28;20170;-82
2023/05/31 09:51:39;;;;;;;12.88;4.35;;;;;;;;;;5094593;28;20276;-83
2023/05/31 09:54:17;;;;;;;8.93;4.45;;;;;;;;;;5075369;28;20183;-82
2023/05/31 09:56:43;;;;;;;7.13;4.03;;;;;;;;;;5092173;28;20182;-83
2023/05/31 09:59:10;;;;;;;6.95;3.70;;;;;;;;;;5079396;28;20182;-92
2023/05/31 10:01:37;;;;;;;7.45;3.92;;;;;;;;;;5096427;28;20179;-93
2023/05/31 10:04:04;;;;;;;9.10;4.28;;;;;;;;;;5096782;28;20228;-90
2023/05/31 10:06:34;;;;;;;9.93;3.80;;;;;;;;;;5087771;28;20179;-90
2023/05/31 10:09:02;;;;;;;6.88;3.80;;;;;;;;;;5075918;28;20179;-91
2023/05/31 10:11:33;;;;;;;11.55;3.75;;;;;;;;;;5060289;28;20210;-91
2023/05/31 10:14:00;;;;;;;7.63;4.03;;;;;;;;;;5079044;28;20166;-91
2023/05/31 10:16:33;;;;;;;6.65;3.65;;;;;;;;;;5084636;28;20177;-85
2023/05/31 10:19:02;;;;;;;7.53;3.83;;;;;;;;;;5095217;28;20190;-85
2023/05/31 10:21:28;;;;;;;7.75;3.67;;;;;;;;;;5095778;28;20331;-84
2023/05/31 10:24:06;;;;;;;7.22;4.25;;;;;;;;;;5095216;28;20174;-85
2023/05/31 10:26:47;;;;;;;7.57;3.55;;;;;;;;;;5095264;28;20185;-85
2023/05/31 10:29:31;;;;;;;7.43;3.17;;;;;;;;;;5086302;28;20189;-85
2023/05/31 10:32:02;;;;;;;6.50;3.70;;;;;;;;;;5095017;28;20206;-84
2023/05/31 10:34:28;;;;;;;10.70;4.68;;;;;;;;;;5095206;28;20174;-83
2023/05/31 10:36:55;;;;;;;9.18;4.22;;;;;;;;;;5093765;28;20178;-84
2023/05/31 10:39:34;;;;;;;7.45;4.13;;;;;;;;;;5095018;28;20236;-83
2023/05/31 10:42:12;;;;;;;8.00;4.28;;;;;;;;;;5093758;28;20182;-83
2023/05/31 10:44:47;;;;;;;8.00;4.30;;;;;;;;;;5086119;28;20226;-84
2023/05/31 10:47:15;;;;;;;8.80;4.20;;;;;;;;;;5094642;28;20174;-84
2023/05/31 10:49:43;;;;;;;10.02;4.10;;;;;;;;;;5094864;28;20197;-86
2023/05/31 10:52:10;;;;;;;10.25;3.50;;;;;;;;;;5091215;28;20209;-86
2023/05/31 10:54:36;;;;;;;7.03;3.90;;;;;;;;;;5076188;28;20211;-86
2023/05/31 10:57:06;;;;;;;9.43;4.13;;;;;;;;;;5063138;28;20199;-85
2023/05/31 10:59:42;;;;;;;9.02;3.42;;;;;;;;;;5075353;28;20183;-86
2023/05/31 11:02:09;;;;;;;7.10;3.17;;;;;;;;;;5065085;28;20178;-87
2023/05/31 11:04:35;;;;;;;5.13;3.20;;;;;;;;;;5077140;28;20273;-87
2023/05/31 11:07:22;;;;;;;7.93;3.00;;;;;;;;;;5072643;28;20189;-87
2023/05/31 11:09:56;;;;;;;9.48;3.70;;;;;;;;;;5067656;28;20186;-87
2023/05/31 11:12:35;;;;;;;6.90;3.30;;;;;;;;;;5081568;28;20231;-87
2023/05/31 11:15:03;;;;;;;7.47;3.53;;;;;;;;;;5082815;28;20236;-87
2023/05/31 11:17:29;;;;;;;7.60;3.28;;;;;;;;;;5087699;28;20174;-87
2023/05/31 11:19:56;;;;;;;6.80;3.38;;;;;;;;;;5074570;28;20205;-87
2023/05/31 11:22:28;;;;;;;6.68;3.28;;;;;;;;;;5075082;28;20190;-85
2023/05/31 11:24:55;;;;;;;7.50;3.22;;;;;;;;;;5057478;28;20179;-85
2023/05/31 11:27:34;;;;;;;7.00;3.33;;;;;;;;;;5057547;28;20276;-85
2023/05/31 11:30:00;;;;;;;6.80;3.35;;;;;;;;;;5074232;28;20182;-84
2023/05/31 11:32:32;;;;;;;9.20;3.63;;;;;;;;;;5074958;28;20295;-85
2023/05/31 11:35:00;;;;;;;8.57;3.20;;;;;;;;;;5075679;28;20193;-85
2023/05/31 11:37:30;;;;;;;8.88;3.50;;;;;;;;;;5078262;28;20211;-85
2023/05/31 11:39:57;;;;;;;8.35;4.10;;;;;;;;;;5074596;28;20179;-86
2023/05/31 11:42:23;;;;;;;11.40;3.65;;;;;;;;;;5074082;28;20190;-85
2023/05/31 11:44:50;;;;;;;7.20;3.75;;;;;;;;;;5056992;28;20229;-85
2023/05/31 11:47:19;;;;;;;8.88;3.55;;;;;;;;;;5076644;28;20183;-85
2023/05/31 11:49:45;;;;;;;8.18;3.65;;;;;;;;;;5074756;28;20186;-85
2023/05/31 11:52:15;;;;;;;8.27;3.63;;;;;;;;;;5074305;28;20206;-85
2023/05/31 11:54:50;;;;;;;9.25;3.50;;;;;;;;;;5075135;28;20191;-85
2023/05/31 11:57:17;;;;;;;8.02;3.63;;;;;;;;;;5076895;28;20178;-86
2023/05/31 11:59:45;;;;;;;11.00;3.90;;;;;;;;;;5076211;28;20206;-85
2023/05/31 12:02:12;;;;;;;8.13;3.83;;;;;;;;;;5067591;28;20189;-85
2023/05/31 12:04:41;;;;;;;7.68;3.78;;;;;;;;;;5077161;28;20194;-85
2023/05/31 12:07:12;;;;;;;9.85;3.40;;;;;;;;;;5073463;28;20239;-86
2023/05/31 12:09:39;;;;;;;11.80;3.50;;;;;;;;;;5074558;28;20253;-86
2023/05/31 12:12:05;;;;;;;7.80;3.65;;;;;;;;;;5074983;28;20206;-86
2023/05/31 12:14:31;;;;;;;6.72;3.85;;;;;;;;;;5055947;28;20186;-85
2023/05/31 12:17:02;;;;;;;10.85;4.10;;;;;;;;;;5074253;28;20187;-86
2023/05/31 12:19:28;;;;;;;7.18;3.53;;;;;;;;;;5070537;28;20182;-86
2023/05/31 12:21:54;;;;;;;9.68;3.40;;;;;;;;;;5074194;28;20198;-85
2023/05/31 12:24:20;;;;;;;8.85;3.42;;;;;;;;;;5060749;28;20194;-85
2023/05/31 12:26:51;;;;;;;5.93;3.50;;;;;;;;;;5077168;28;20255;-85
2023/05/31 12:29:17;;;;;;;7.00;3.53;;;;;;;;;;5075460;28;20250;-92
2023/05/31 12:31:43;;;;;;;7.60;3.42;;;;;;;;;;5083195;28;20213;-91
2023/05/31 12:34:10;;;;;;;6.20;3.40;;;;;;;;;;5083075;28;20208;-93
2023/05/31 12:36:42;;;;;;;10.23;3.75;;;;;;;;;;5085353;28;20181;-92
2023/05/31 12:39:11;;;;;;;8.70;3.40;;;;;;;;;;5081246;28;20179;-93
2023/05/31 12:41:37;;;;;;;7.97;3.65;;;;;;;;;;5077059;28;20188;-92
2023/05/31 12:44:03;;;;;;;7.72;3.17;;;;;;;;;;5093119;28;20233;-90
2023/05/31 12:46:36;;;;;;;6.68;3.42;;;;;;;;;;5087734;28;20186;-88
2023/05/31 12:49:10;;;;;;;6.55;3.50;;;;;;;;;;5086501;28;20248;-88
2023/05/31 12:51:37;;;;;;;5.75;3.40;;;;;;;;;;5092579;28;20251;-87
2023/05/31 12:54:03;;;;;;;6.93;3.30;;;;;;;;;;5088285;28;20183;-87
2023/05/31 12:56:29;;;;;;;8.70;3.80;;;;;;;;;;5084932;28;20183;-86
2023/05/31 12:58:55;;;;;;;11.35;3.30;;;;;;;;;;5086626;28;20183;-87
2023/05/31 13:01:22;;;;;;;7.85;3.75;;;;;;;;;;5073567;28;20179;-87
2023/05/31 13:03:51;;;;;;;7.07;3.58;;;;;;;;;;5058664;28;20183;-83
2023/05/31 13:06:17;;;;;;;5.78;3.58;;;;;;;;;;5055705;28;20183;-83
2023/05/31 13:08:44;;;;;;;9.27;3.38;;;;;;;;;;5072472;28;20263;-84
2023/05/31 13:11:10;;;;;;;8.05;3.83;;;;;;;;;;5055728;28;20179;-84
2023/05/31 13:13:36;;;;;;;9.60;3.70;;;;;;;;;;5084963;28;20274;-84
2023/05/31 13:16:04;;;;;;;5.75;3.38;;;;;;;;;;5073921;28;20249;-83
2023/05/31 13:18:30;;;;;;;6.55;3.38;;;;;;;;;;5056342;28;20185;-88
2023/05/31 13:20:58;;;;;;;8.75;3.85;;;;;;;;;;5075268;28;20258;-87
2023/05/31 13:23:24;;;;;;;9.57;3.45;;;;;;;;;;5092610;28;20182;-87
2023/05/31 13:25:50;;;;;;;9.07;3.95;;;;;;;;;;5075721;28;20179;-87
2023/05/31 13:28:17;;;;;;;5.93;3.60;;;;;;;;;;5055540;28;20207;-88
2023/05/31 13:30:43;;;;;;;6.65;3.90;;;;;;;;;;5081521;28;20176;-87
2023/05/31 13:33:09;;;;;;;7.88;4.05;;;;;;;;;;5080965;28;20511;-89
2023/05/31 13:35:37;;;;;;;10.55;3.78;;;;;;;;;;5073920;28;20186;-83
2023/05/31 13:38:03;;;;;;;8.73;3.90;;;;;;;;;;5072320;28;20242;-83
2023/05/31 13:40:33;;;;;;;7.32;3.40;;;;;;;;;;5072424;28;20171;-83
2023/05/31 13:43:04;;;;;;;6.30;3.72;;;;;;;;;;5072289;28;20179;-84
2023/05/31 13:45:33;;;;;;;7.20;3.85;;;;;;;;;;5089172;28;20234;-86
2023/05/31 13:47:59;;;;;;;10.07;3.80;;;;;;;;;;5072543;28;20221;-85
2023/05/31 13:50:25;;;;;;;9.13;3.83;;;;;;;;;;5059802;28;20186;-82
2023/05/31 13:52:51;;;;;;;8.23;3.90;;;;;;;;;;5071213;28;20207;-87
2023/05/31 13:55:17;;;;;;;8.95;3.63;;;;;;;;;;5070211;28;20187;-87
2023/05/31 13:57:43;;;;;;;9.88;3.55;;;;;;;;;;5095981;28;20209;-87
2023/05/31 14:00:10;;;;;;;8.18;3.42;;;;;;;;;;5096404;28;20213;-87
2023/05/31 14:02:41;;;;;;;7.97;3.22;;;;;;;;;;5096200;28;20174;-87
2023/05/31 14:05:07;;;;;;;12.02;3.85;;;;;;;;;;5095928;28;20185;-88
2023/05/31 14:07:33;;;;;;;5.30;3.38;;;;;;;;;;5095736;28;20174;-88
2023/05/31 14:09:59;;;;;;;7.22;3.47;;;;;;;;;;5079388;28;20179;-87
2023/05/31 14:12:25;;;;;;;5.57;3.50;;;;;;;;;;5095758;28;20202;-88
2023/05/31 14:14:51;;;;;;;6.88;3.38;;;;;;;;;;5095692;28;20178;-87
2023/05/31 14:17:17;;;;;;;6.20;3.33;;;;;;;;;;5078554;28;20282;-88
2023/05/31 14:19:43;;;;;;;6.50;3.53;;;;;;;;;;5078571;28;20202;-88
2023/05/31 14:22:09;;;;;;;8.30;3.90;;;;;;;;;;5095247;28;20170;-87
2023/05/31 14:24:35;;;;;;;7.47;3.50;;;;;;;;;;5078521;28;20202;-88
2023/05/31 14:27:02;;;;;;;9.30;3.60;;;;;;;;;;5081038;28;20187;-94
2023/05/31 14:29:28;;;;;;;7.15;3.45;;;;;;;;;;5097587;28;20185;-91
2023/05/31 14:31:54;;;;;;;8.57;3.53;;;;;;;;;;5098163;28;20206;-93
2023/05/31 14:34:20;;;;;;;9.60;3.85;;;;;;;;;;5080154;28;20206;-92